sensor_id;sensor_type;location;lat;lon;timestamp;P1;durP1;ratioP1;P2;durP2;ratioP2
22614;SDS011;11474;50.790;0.298;2023-05-07T00:01:54;21.67;;;8.90;;
22614;SDS011;11474;50.790;0.298;2023-05-07T00:04:20;23.03;;;9.83;;
22614;SDS011;11474;50.790;0.298;2023-05-07T00:06:46;22.60;;;9.75;;
22614;SDS011;11474;50.790;0.298;2023-05-07T00:09:12;21.70;;;10.20;;
22614;SDS011;11474;50.790;0.298;2023-05-07T00:11:38;21.27;;;9.80;;
22614;SDS011;11474;50.790;0.298;2023-05-07T00:14:04;22.77;;;11.20;;
22614;SDS011;11474;50.790;0.298;2023-05-07T00:16:30;23.93;;;11.40;;
22614;SDS011;11474;50.790;0.298;2023-05-07T00:18:57;25.40;;;11.80;;
22614;SDS011;11474;50.790;0.298;2023-05-07T00:21:23;23.10;;;11.57;;
22614;SDS011;11474;50.790;0.298;2023-05-07T00:23:52;24.70;;;12.48;;
22614;SDS011;11474;50.790;0.298;2023-05-07T00:26:18;26.13;;;12.03;;
22614;SDS011;11474;50.790;0.298;2023-05-07T00:28:44;26.45;;;13.18;;
22614;SDS011;11474;50.790;0.298;2023-05-07T00:31:10;24.55;;;13.38;;
22614;SDS011;11474;50.790;0.298;2023-05-07T00:33:37;29.88;;;12.95;;
22614;SDS011;11474;50.790;0.298;2023-05-07T00:36:03;29.95;;;13.90;;
22614;SDS011;11474;50.790;0.298;2023-05-07T00:38:29;27.35;;;14.07;;
22614;SDS011;11474;50.790;0.298;2023-05-07T00:40:55;28.92;;;13.43;;
22614;SDS011;11474;50.790;0.298;2023-05-07T00:43:21;28.25;;;14.70;;
22614;SDS011;11474;50.790;0.298;2023-05-07T00:45:47;30.02;;;15.20;;
22614;SDS011;11474;50.790;0.298;2023-05-07T00:48:13;28.58;;;15.48;;
22614;SDS011;11474;50.790;0.298;2023-05-07T00:50:40;34.65;;;16.33;;
22614;SDS011;11474;50.790;0.298;2023-05-07T00:53:06;29.30;;;15.98;;
22614;SDS011;11474;50.790;0.298;2023-05-07T00:55:32;32.33;;;15.43;;
22614;SDS011;11474;50.790;0.298;2023-05-07T00:57:59;30.43;;;14.83;;
22614;SDS011;11474;50.790;0.298;2023-05-07T01:00:25;26.30;;;14.75;;
22614;SDS011;11474;50.790;0.298;2023-05-07T01:02:51;30.48;;;13.90;;
22614;SDS011;11474;50.790;0.298;2023-05-07T01:05:17;29.40;;;14.65;;
22614;SDS011;11474;50.790;0.298;2023-05-07T01:07:44;27.35;;;14.35;;
22614;SDS011;11474;50.790;0.298;2023-05-07T01:10:10;25.35;;;13.25;;
22614;SDS011;11474;50.790;0.298;2023-05-07T01:12:37;27.13;;;13.23;;
22614;SDS011;11474;50.790;0.298;2023-05-07T01:15:04;24.02;;;13.20;;
22614;SDS011;11474;50.790;0.298;2023-05-07T01:17:34;27.13;;;12.88;;
22614;SDS011;11474;50.790;0.298;2023-05-07T01:20:01;26.43;;;12.43;;
22614;SDS011;11474;50.790;0.298;2023-05-07T01:22:30;26.52;;;14.52;;
22614;SDS011;11474;50.790;0.298;2023-05-07T01:24:57;29.63;;;14.50;;
22614;SDS011;11474;50.790;0.298;2023-05-07T01:27:24;33.95;;;15.10;;
22614;SDS011;11474;50.790;0.298;2023-05-07T01:29:51;33.50;;;15.73;;
22614;SDS011;11474;50.790;0.298;2023-05-07T01:32:18;29.70;;;15.13;;
22614;SDS011;11474;50.790;0.298;2023-05-07T01:34:47;29.40;;;15.67;;
22614;SDS011;11474;50.790;0.298;2023-05-07T01:37:14;30.73;;;16.27;;
22614;SDS011;11474;50.790;0.298;2023-05-07T01:39:40;27.15;;;14.95;;
22614;SDS011;11474;50.790;0.298;2023-05-07T01:42:06;32.53;;;16.48;;
22614;SDS011;11474;50.790;0.298;2023-05-07T01:44:32;29.80;;;16.08;;
22614;SDS011;11474;50.790;0.298;2023-05-07T01:46:58;31.88;;;16.70;;
22614;SDS011;11474;50.790;0.298;2023-05-07T01:49:24;31.10;;;16.30;;
22614;SDS011;11474;50.790;0.298;2023-05-07T01:51:51;35.38;;;18.08;;
22614;SDS011;11474;50.790;0.298;2023-05-07T01:54:17;28.98;;;16.50;;
22614;SDS011;11474;50.790;0.298;2023-05-07T01:56:43;36.38;;;17.33;;
22614;SDS011;11474;50.790;0.298;2023-05-07T01:59:09;31.67;;;17.52;;
22614;SDS011;11474;50.790;0.298;2023-05-07T02:01:35;31.23;;;16.75;;
22614;SDS011;11474;50.790;0.298;2023-05-07T02:04:01;32.90;;;17.30;;
22614;SDS011;11474;50.790;0.298;2023-05-07T02:06:27;37.00;;;16.70;;
22614;SDS011;11474;50.790;0.298;2023-05-07T02:08:53;36.23;;;18.13;;
22614;SDS011;11474;50.790;0.298;2023-05-07T02:11:19;41.47;;;17.95;;
22614;SDS011;11474;50.790;0.298;2023-05-07T02:13:46;37.67;;;18.33;;
22614;SDS011;11474;50.790;0.298;2023-05-07T02:16:12;41.33;;;19.20;;
22614;SDS011;11474;50.790;0.298;2023-05-07T02:18:39;38.08;;;19.38;;
22614;SDS011;11474;50.790;0.298;2023-05-07T02:21:05;39.58;;;19.08;;
22614;SDS011;11474;50.790;0.298;2023-05-07T02:23:31;41.28;;;20.83;;
22614;SDS011;11474;50.790;0.298;2023-05-07T02:25:57;54.03;;;21.20;;
22614;SDS011;11474;50.790;0.298;2023-05-07T02:28:23;44.65;;;20.30;;
22614;SDS011;11474;50.790;0.298;2023-05-07T02:30:49;44.90;;;20.42;;
22614;SDS011;11474;50.790;0.298;2023-05-07T02:33:15;41.20;;;19.63;;
22614;SDS011;11474;50.790;0.298;2023-05-07T02:35:41;46.30;;;19.38;;
22614;SDS011;11474;50.790;0.298;2023-05-07T02:38:07;40.58;;;17.95;;
22614;SDS011;11474;50.790;0.298;2023-05-07T02:40:35;35.95;;;17.42;;
22614;SDS011;11474;50.790;0.298;2023-05-07T02:43:04;38.80;;;18.85;;
22614;SDS011;11474;50.790;0.298;2023-05-07T02:45:31;38.08;;;19.35;;
22614;SDS011;11474;50.790;0.298;2023-05-07T02:47:57;41.67;;;20.02;;
22614;SDS011;11474;50.790;0.298;2023-05-07T02:50:23;41.83;;;19.67;;
22614;SDS011;11474;50.790;0.298;2023-05-07T02:52:50;42.63;;;19.92;;
22614;SDS011;11474;50.790;0.298;2023-05-07T02:55:16;41.17;;;19.70;;
22614;SDS011;11474;50.790;0.298;2023-05-07T02:57:42;35.97;;;18.98;;
22614;SDS011;11474;50.790;0.298;2023-05-07T03:00:15;35.55;;;18.35;;
22614;SDS011;11474;50.790;0.298;2023-05-07T03:02:41;42.65;;;19.10;;
22614;SDS011;11474;50.790;0.298;2023-05-07T03:05:07;40.38;;;18.95;;
22614;SDS011;11474;50.790;0.298;2023-05-07T03:07:34;39.80;;;18.00;;
22614;SDS011;11474;50.790;0.298;2023-05-07T03:10:00;34.83;;;17.15;;
22614;SDS011;11474;50.790;0.298;2023-05-07T03:12:26;35.70;;;15.32;;
22614;SDS011;11474;50.790;0.298;2023-05-07T03:14:52;38.40;;;15.50;;
22614;SDS011;11474;50.790;0.298;2023-05-07T03:17:18;32.72;;;15.18;;
22614;SDS011;11474;50.790;0.298;2023-05-07T03:19:45;35.40;;;15.05;;
22614;SDS011;11474;50.790;0.298;2023-05-07T03:22:11;30.38;;;14.40;;
22614;SDS011;11474;50.790;0.298;2023-05-07T03:24:37;36.30;;;17.05;;
22614;SDS011;11474;50.790;0.298;2023-05-07T03:27:03;32.23;;;16.47;;
22614;SDS011;11474;50.790;0.298;2023-05-07T03:29:29;37.85;;;17.48;;
22614;SDS011;11474;50.790;0.298;2023-05-07T03:31:55;37.75;;;16.83;;
22614;SDS011;11474;50.790;0.298;2023-05-07T03:34:21;35.95;;;15.93;;
22614;SDS011;11474;50.790;0.298;2023-05-07T03:36:50;27.95;;;13.65;;
22614;SDS011;11474;50.790;0.298;2023-05-07T03:39:17;31.25;;;15.10;;
22614;SDS011;11474;50.790;0.298;2023-05-07T03:41:43;30.25;;;15.15;;
22614;SDS011;11474;50.790;0.298;2023-05-07T03:44:09;32.63;;;15.35;;
22614;SDS011;11474;50.790;0.298;2023-05-07T03:46:35;32.95;;;17.73;;
22614;SDS011;11474;50.790;0.298;2023-05-07T03:49:01;42.43;;;20.30;;
22614;SDS011;11474;50.790;0.298;2023-05-07T03:51:27;38.67;;;19.95;;
22614;SDS011;11474;50.790;0.298;2023-05-07T03:53:53;46.20;;;21.17;;
22614;SDS011;11474;50.790;0.298;2023-05-07T03:56:19;40.15;;;20.60;;
22614;SDS011;11474;50.790;0.298;2023-05-07T03:58:46;40.57;;;20.70;;
22614;SDS011;11474;50.790;0.298;2023-05-07T04:01:12;40.47;;;20.38;;
22614;SDS011;11474;50.790;0.298;2023-05-07T04:03:39;35.42;;;18.70;;
22614;SDS011;11474;50.790;0.298;2023-05-07T04:06:05;33.15;;;17.70;;
22614;SDS011;11474;50.790;0.298;2023-05-07T04:08:31;35.65;;;18.38;;
22614;SDS011;11474;50.790;0.298;2023-05-07T04:10:57;30.05;;;14.82;;
22614;SDS011;11474;50.790;0.298;2023-05-07T04:13:23;24.33;;;14.43;;
22614;SDS011;11474;50.790;0.298;2023-05-07T04:15:50;22.75;;;13.52;;
22614;SDS011;11474;50.790;0.298;2023-05-07T04:18:16;21.63;;;12.57;;
22614;SDS011;11474;50.790;0.298;2023-05-07T04:20:42;27.15;;;13.50;;
22614;SDS011;11474;50.790;0.298;2023-05-07T04:23:08;39.55;;;17.58;;
22614;SDS011;11474;50.790;0.298;2023-05-07T04:25:34;46.33;;;19.00;;
22614;SDS011;11474;50.790;0.298;2023-05-07T04:28:00;49.25;;;19.88;;
22614;SDS011;11474;50.790;0.298;2023-05-07T04:30:26;48.30;;;19.20;;
22614;SDS011;11474;50.790;0.298;2023-05-07T04:32:52;48.65;;;19.55;;
22614;SDS011;11474;50.790;0.298;2023-05-07T04:35:19;73.28;;;20.00;;
22614;SDS011;11474;50.790;0.298;2023-05-07T04:37:45;110.40;;;21.10;;
22614;SDS011;11474;50.790;0.298;2023-05-07T04:40:11;77.22;;;18.70;;
22614;SDS011;11474;50.790;0.298;2023-05-07T04:42:37;97.95;;;17.80;;
22614;SDS011;11474;50.790;0.298;2023-05-07T04:45:04;74.28;;;14.88;;
22614;SDS011;11474;50.790;0.298;2023-05-07T04:47:30;53.65;;;15.40;;
22614;SDS011;11474;50.790;0.298;2023-05-07T04:49:57;61.00;;;17.15;;
22614;SDS011;11474;50.790;0.298;2023-05-07T04:52:23;42.20;;;16.60;;
22614;SDS011;11474;50.790;0.298;2023-05-07T04:54:49;83.47;;;14.05;;
22614;SDS011;11474;50.790;0.298;2023-05-07T04:57:15;53.92;;;11.68;;
22614;SDS011;11474;50.790;0.298;2023-05-07T04:59:42;88.47;;;11.80;;
22614;SDS011;11474;50.790;0.298;2023-05-07T05:02:09;49.15;;;10.27;;
22614;SDS011;11474;50.790;0.298;2023-05-07T05:04:35;48.03;;;11.85;;
22614;SDS011;11474;50.790;0.298;2023-05-07T05:07:02;31.42;;;11.13;;
22614;SDS011;11474;50.790;0.298;2023-05-07T05:09:29;33.17;;;10.07;;
22614;SDS011;11474;50.790;0.298;2023-05-07T05:11:55;28.80;;;10.02;;
22614;SDS011;11474;50.790;0.298;2023-05-07T05:14:21;22.27;;;10.30;;
22614;SDS011;11474;50.790;0.298;2023-05-07T05:16:47;47.47;;;10.13;;
22614;SDS011;11474;50.790;0.298;2023-05-07T05:19:13;54.92;;;10.38;;
22614;SDS011;11474;50.790;0.298;2023-05-07T05:21:39;34.50;;;9.60;;
22614;SDS011;11474;50.790;0.298;2023-05-07T05:24:05;20.83;;;8.05;;
22614;SDS011;11474;50.790;0.298;2023-05-07T05:26:31;25.52;;;8.07;;
22614;SDS011;11474;50.790;0.298;2023-05-07T05:28:57;20.85;;;7.53;;
22614;SDS011;11474;50.790;0.298;2023-05-07T05:31:23;20.25;;;7.53;;
22614;SDS011;11474;50.790;0.298;2023-05-07T05:33:49;22.40;;;8.63;;
22614;SDS011;11474;50.790;0.298;2023-05-07T05:36:16;16.73;;;7.95;;
22614;SDS011;11474;50.790;0.298;2023-05-07T05:38:42;14.90;;;7.55;;
22614;SDS011;11474;50.790;0.298;2023-05-07T05:41:08;22.20;;;8.13;;
22614;SDS011;11474;50.790;0.298;2023-05-07T05:43:34;48.40;;;9.07;;
22614;SDS011;11474;50.790;0.298;2023-05-07T05:46:01;23.02;;;9.07;;
22614;SDS011;11474;50.790;0.298;2023-05-07T05:48:28;38.65;;;8.65;;
22614;SDS011;11474;50.790;0.298;2023-05-07T05:50:54;17.88;;;8.77;;
22614;SDS011;11474;50.790;0.298;2023-05-07T05:53:20;21.58;;;8.13;;
22614;SDS011;11474;50.790;0.298;2023-05-07T05:55:46;23.05;;;8.25;;
22614;SDS011;11474;50.790;0.298;2023-05-07T05:58:12;17.92;;;8.52;;
22614;SDS011;11474;50.790;0.298;2023-05-07T06:00:40;16.83;;;9.00;;
22614;SDS011;11474;50.790;0.298;2023-05-07T06:03:06;14.05;;;7.32;;
22614;SDS011;11474;50.790;0.298;2023-05-07T06:05:32;14.38;;;7.72;;
22614;SDS011;11474;50.790;0.298;2023-05-07T06:07:58;17.98;;;8.70;;
22614;SDS011;11474;50.790;0.298;2023-05-07T06:10:24;16.67;;;9.25;;
22614;SDS011;11474;50.790;0.298;2023-05-07T06:12:51;17.05;;;9.45;;
22614;SDS011;11474;50.790;0.298;2023-05-07T06:15:17;13.38;;;8.23;;
22614;SDS011;11474;50.790;0.298;2023-05-07T06:17:43;14.90;;;8.15;;
22614;SDS011;11474;50.790;0.298;2023-05-07T06:20:09;14.88;;;7.95;;
22614;SDS011;11474;50.790;0.298;2023-05-07T06:22:35;13.70;;;7.45;;
22614;SDS011;11474;50.790;0.298;2023-05-07T06:25:01;11.30;;;6.97;;
22614;SDS011;11474;50.790;0.298;2023-05-07T06:27:27;11.90;;;7.25;;
22614;SDS011;11474;50.790;0.298;2023-05-07T06:29:53;15.63;;;8.03;;
22614;SDS011;11474;50.790;0.298;2023-05-07T06:32:19;13.60;;;7.55;;
22614;SDS011;11474;50.790;0.298;2023-05-07T06:34:45;14.88;;;8.50;;
22614;SDS011;11474;50.790;0.298;2023-05-07T06:37:11;16.88;;;9.10;;
22614;SDS011;11474;50.790;0.298;2023-05-07T06:39:37;16.00;;;9.43;;
22614;SDS011;11474;50.790;0.298;2023-05-07T06:42:03;19.83;;;10.50;;
22614;SDS011;11474;50.790;0.298;2023-05-07T06:44:30;19.10;;;9.90;;
22614;SDS011;11474;50.790;0.298;2023-05-07T06:46:56;17.50;;;10.50;;
22614;SDS011;11474;50.790;0.298;2023-05-07T06:49:22;15.70;;;9.27;;
22614;SDS011;11474;50.790;0.298;2023-05-07T06:51:48;16.67;;;9.13;;
22614;SDS011;11474;50.790;0.298;2023-05-07T06:54:14;13.23;;;7.90;;
22614;SDS011;11474;50.790;0.298;2023-05-07T06:56:41;19.42;;;8.52;;
22614;SDS011;11474;50.790;0.298;2023-05-07T06:59:07;14.80;;;8.85;;
22614;SDS011;11474;50.790;0.298;2023-05-07T07:01:33;19.73;;;9.68;;
22614;SDS011;11474;50.790;0.298;2023-05-07T07:03:59;14.63;;;9.20;;
22614;SDS011;11474;50.790;0.298;2023-05-07T07:06:25;14.75;;;9.65;;
22614;SDS011;11474;50.790;0.298;2023-05-07T07:08:51;17.63;;;10.45;;
22614;SDS011;11474;50.790;0.298;2023-05-07T07:11:17;15.95;;;10.23;;
22614;SDS011;11474;50.790;0.298;2023-05-07T07:13:44;17.52;;;11.20;;
22614;SDS011;11474;50.790;0.298;2023-05-07T07:16:10;16.92;;;10.73;;
22614;SDS011;11474;50.790;0.298;2023-05-07T07:18:36;21.10;;;11.18;;
22614;SDS011;11474;50.790;0.298;2023-05-07T07:21:02;18.95;;;11.45;;
22614;SDS011;11474;50.790;0.298;2023-05-07T07:23:28;20.50;;;12.45;;
22614;SDS011;11474;50.790;0.298;2023-05-07T07:25:54;19.15;;;12.10;;
22614;SDS011;11474;50.790;0.298;2023-05-07T07:28:23;18.50;;;12.13;;
22614;SDS011;11474;50.790;0.298;2023-05-07T07:30:49;20.52;;;12.98;;
22614;SDS011;11474;50.790;0.298;2023-05-07T07:33:15;20.02;;;12.30;;
22614;SDS011;11474;50.790;0.298;2023-05-07T07:35:41;20.27;;;13.27;;
22614;SDS011;11474;50.790;0.298;2023-05-07T07:38:07;22.48;;;13.30;;
22614;SDS011;11474;50.790;0.298;2023-05-07T07:40:36;22.00;;;13.50;;
22614;SDS011;11474;50.790;0.298;2023-05-07T07:43:02;21.77;;;14.05;;
22614;SDS011;11474;50.790;0.298;2023-05-07T07:45:28;22.10;;;14.13;;
22614;SDS011;11474;50.790;0.298;2023-05-07T07:47:54;23.73;;;15.30;;
22614;SDS011;11474;50.790;0.298;2023-05-07T07:50:20;22.35;;;14.77;;
22614;SDS011;11474;50.790;0.298;2023-05-07T07:52:47;23.05;;;14.80;;
22614;SDS011;11474;50.790;0.298;2023-05-07T07:55:14;25.50;;;14.93;;
22614;SDS011;11474;50.790;0.298;2023-05-07T07:57:43;20.00;;;14.30;;
22614;SDS011;11474;50.790;0.298;2023-05-07T08:00:09;21.95;;;14.70;;
22614;SDS011;11474;50.790;0.298;2023-05-07T08:02:35;22.67;;;14.77;;
22614;SDS011;11474;50.790;0.298;2023-05-07T08:05:01;24.02;;;14.50;;
22614;SDS011;11474;50.790;0.298;2023-05-07T08:07:27;21.73;;;14.55;;
22614;SDS011;11474;50.790;0.298;2023-05-07T08:09:53;21.65;;;14.07;;
22614;SDS011;11474;50.790;0.298;2023-05-07T08:12:19;23.83;;;13.70;;
22614;SDS011;11474;50.790;0.298;2023-05-07T08:14:45;20.10;;;13.45;;
22614;SDS011;11474;50.790;0.298;2023-05-07T08:17:11;22.77;;;14.07;;
22614;SDS011;11474;50.790;0.298;2023-05-07T08:19:40;22.08;;;13.73;;
22614;SDS011;11474;50.790;0.298;2023-05-07T08:22:06;20.02;;;13.30;;
22614;SDS011;11474;50.790;0.298;2023-05-07T08:24:32;20.80;;;13.35;;
22614;SDS011;11474;50.790;0.298;2023-05-07T08:26:58;19.60;;;13.67;;
22614;SDS011;11474;50.790;0.298;2023-05-07T08:29:25;18.63;;;12.60;;
22614;SDS011;11474;50.790;0.298;2023-05-07T08:31:51;20.00;;;13.70;;
22614;SDS011;11474;50.790;0.298;2023-05-07T08:34:17;21.13;;;14.02;;
22614;SDS011;11474;50.790;0.298;2023-05-07T08:36:43;21.23;;;13.20;;
22614;SDS011;11474;50.790;0.298;2023-05-07T08:39:12;24.20;;;14.73;;
22614;SDS011;11474;50.790;0.298;2023-05-07T08:41:38;21.40;;;14.13;;
22614;SDS011;11474;50.790;0.298;2023-05-07T08:44:04;22.40;;;14.80;;
22614;SDS011;11474;50.790;0.298;2023-05-07T08:46:32;21.55;;;13.48;;
22614;SDS011;11474;50.790;0.298;2023-05-07T08:48:58;21.25;;;13.75;;
22614;SDS011;11474;50.790;0.298;2023-05-07T08:51:24;21.38;;;14.55;;
22614;SDS011;11474;50.790;0.298;2023-05-07T08:53:50;23.03;;;14.70;;
22614;SDS011;11474;50.790;0.298;2023-05-07T08:56:16;20.65;;;14.07;;
22614;SDS011;11474;50.790;0.298;2023-05-07T08:58:43;22.27;;;14.82;;
22614;SDS011;11474;50.790;0.298;2023-05-07T09:01:11;22.75;;;15.20;;
22614;SDS011;11474;50.790;0.298;2023-05-07T09:03:38;23.90;;;16.23;;
22614;SDS011;11474;50.790;0.298;2023-05-07T09:06:05;26.02;;;16.55;;
22614;SDS011;11474;50.790;0.298;2023-05-07T09:08:34;29.33;;;17.10;;
22614;SDS011;11474;50.790;0.298;2023-05-07T09:11:01;30.23;;;18.77;;
22614;SDS011;11474;50.790;0.298;2023-05-07T09:13:27;27.52;;;17.50;;
22614;SDS011;11474;50.790;0.298;2023-05-07T09:15:53;29.85;;;18.13;;
22614;SDS011;11474;50.790;0.298;2023-05-07T09:18:20;25.25;;;16.75;;
22614;SDS011;11474;50.790;0.298;2023-05-07T09:20:46;28.00;;;17.27;;
22614;SDS011;11474;50.790;0.298;2023-05-07T09:23:12;24.27;;;17.58;;
22614;SDS011;11474;50.790;0.298;2023-05-07T09:25:38;27.40;;;17.20;;
22614;SDS011;11474;50.790;0.298;2023-05-07T09:28:04;28.20;;;17.15;;
22614;SDS011;11474;50.790;0.298;2023-05-07T09:30:32;25.65;;;16.33;;
22614;SDS011;11474;50.790;0.298;2023-05-07T09:32:59;23.25;;;15.15;;
22614;SDS011;11474;50.790;0.298;2023-05-07T09:35:26;22.95;;;15.50;;
22614;SDS011;11474;50.790;0.298;2023-05-07T09:37:52;22.08;;;13.80;;
22614;SDS011;11474;50.790;0.298;2023-05-07T09:40:20;20.20;;;13.40;;
22614;SDS011;11474;50.790;0.298;2023-05-07T09:42:47;23.40;;;13.30;;
22614;SDS011;11474;50.790;0.298;2023-05-07T09:45:14;21.83;;;13.75;;
22614;SDS011;11474;50.790;0.298;2023-05-07T09:47:40;22.30;;;14.73;;
22614;SDS011;11474;50.790;0.298;2023-05-07T09:50:11;21.83;;;14.30;;
22614;SDS011;11474;50.790;0.298;2023-05-07T09:52:38;24.27;;;15.43;;
22614;SDS011;11474;50.790;0.298;2023-05-07T09:55:07;21.40;;;13.55;;
22614;SDS011;11474;50.790;0.298;2023-05-07T09:57:34;24.73;;;15.05;;
22614;SDS011;11474;50.790;0.298;2023-05-07T10:00:02;23.40;;;14.67;;
22614;SDS011;11474;50.790;0.298;2023-05-07T10:02:33;22.30;;;14.17;;
22614;SDS011;11474;50.790;0.298;2023-05-07T10:05:01;20.27;;;13.50;;
22614;SDS011;11474;50.790;0.298;2023-05-07T10:07:28;22.45;;;13.75;;
22614;SDS011;11474;50.790;0.298;2023-05-07T10:09:54;22.33;;;13.98;;
22614;SDS011;11474;50.790;0.298;2023-05-07T10:12:20;22.15;;;13.60;;
22614;SDS011;11474;50.790;0.298;2023-05-07T10:14:47;22.02;;;14.35;;
22614;SDS011;11474;50.790;0.298;2023-05-07T10:17:13;22.47;;;14.67;;
22614;SDS011;11474;50.790;0.298;2023-05-07T10:19:39;20.38;;;13.30;;
22614;SDS011;11474;50.790;0.298;2023-05-07T10:22:06;20.20;;;13.18;;
22614;SDS011;11474;50.790;0.298;2023-05-07T10:24:32;21.80;;;13.30;;
22614;SDS011;11474;50.790;0.298;2023-05-07T10:26:59;22.00;;;13.53;;
22614;SDS011;11474;50.790;0.298;2023-05-07T10:29:37;19.73;;;13.13;;
22614;SDS011;11474;50.790;0.298;2023-05-07T10:32:19;16.80;;;12.38;;
22614;SDS011;11474;50.790;0.298;2023-05-07T10:34:47;18.23;;;11.43;;
22614;SDS011;11474;50.790;0.298;2023-05-07T10:37:14;16.27;;;11.27;;
22614;SDS011;11474;50.790;0.298;2023-05-07T10:39:40;16.02;;;11.15;;
22614;SDS011;11474;50.790;0.298;2023-05-07T10:42:14;16.73;;;11.15;;
22614;SDS011;11474;50.790;0.298;2023-05-07T10:44:40;17.58;;;11.55;;
22614;SDS011;11474;50.790;0.298;2023-05-07T10:47:09;15.85;;;10.13;;
22614;SDS011;11474;50.790;0.298;2023-05-07T10:49:37;14.93;;;9.73;;
22614;SDS011;11474;50.790;0.298;2023-05-07T10:52:12;16.53;;;10.80;;
22614;SDS011;11474;50.790;0.298;2023-05-07T10:54:39;15.07;;;10.00;;
22614;SDS011;11474;50.790;0.298;2023-05-07T10:59:50;16.13;;;9.80;;
22614;SDS011;11474;50.790;0.298;2023-05-07T11:02:17;15.02;;;10.50;;
22614;SDS011;11474;50.790;0.298;2023-05-07T11:04:43;16.00;;;10.10;;
22614;SDS011;11474;50.790;0.298;2023-05-07T11:07:17;14.20;;;8.90;;
22614;SDS011;11474;50.790;0.298;2023-05-07T11:15:06;15.35;;;9.50;;
22614;SDS011;11474;50.790;0.298;2023-05-07T11:17:32;15.38;;;9.98;;
22614;SDS011;11474;50.790;0.298;2023-05-07T11:20:00;14.68;;;9.57;;
22614;SDS011;11474;50.790;0.298;2023-05-07T11:24:56;16.77;;;10.05;;
22614;SDS011;11474;50.790;0.298;2023-05-07T11:27:23;15.18;;;9.50;;
22614;SDS011;11474;50.790;0.298;2023-05-07T11:29:49;13.83;;;9.33;;
22614;SDS011;11474;50.790;0.298;2023-05-07T11:32:21;12.60;;;8.40;;
22614;SDS011;11474;50.790;0.298;2023-05-07T11:34:50;13.85;;;8.95;;
22614;SDS011;11474;50.790;0.298;2023-05-07T11:37:17;13.32;;;8.98;;
22614;SDS011;11474;50.790;0.298;2023-05-07T11:39:43;13.40;;;8.88;;
22614;SDS011;11474;50.790;0.298;2023-05-07T11:42:25;12.32;;;8.07;;
22614;SDS011;11474;50.790;0.298;2023-05-07T11:44:51;10.85;;;7.82;;
22614;SDS011;11474;50.790;0.298;2023-05-07T11:47:18;12.82;;;8.38;;
22614;SDS011;11474;50.790;0.298;2023-05-07T11:49:47;11.35;;;7.93;;
22614;SDS011;11474;50.790;0.298;2023-05-07T11:52:14;13.15;;;8.02;;
22614;SDS011;11474;50.790;0.298;2023-05-07T11:54:40;12.67;;;8.33;;
22614;SDS011;11474;50.790;0.298;2023-05-07T11:57:06;12.90;;;8.30;;
22614;SDS011;11474;50.790;0.298;2023-05-07T11:59:39;12.15;;;8.55;;
22614;SDS011;11474;50.790;0.298;2023-05-07T12:02:06;13.25;;;8.52;;
22614;SDS011;11474;50.790;0.298;2023-05-07T12:04:32;13.82;;;8.73;;
22614;SDS011;11474;50.790;0.298;2023-05-07T12:06:58;11.52;;;7.38;;
22614;SDS011;11474;50.790;0.298;2023-05-07T12:09:24;12.00;;;7.78;;
22614;SDS011;11474;50.790;0.298;2023-05-07T12:11:51;12.77;;;7.68;;
22614;SDS011;11474;50.790;0.298;2023-05-07T12:14:18;12.65;;;7.57;;
22614;SDS011;11474;50.790;0.298;2023-05-07T12:16:44;12.77;;;7.60;;
22614;SDS011;11474;50.790;0.298;2023-05-07T12:19:10;14.02;;;8.38;;
22614;SDS011;11474;50.790;0.298;2023-05-07T12:21:40;11.75;;;8.00;;
22614;SDS011;11474;50.790;0.298;2023-05-07T12:24:07;12.05;;;7.85;;
22614;SDS011;11474;50.790;0.298;2023-05-07T12:26:37;11.48;;;7.60;;
22614;SDS011;11474;50.790;0.298;2023-05-07T12:29:03;11.88;;;7.85;;
22614;SDS011;11474;50.790;0.298;2023-05-07T12:31:29;10.95;;;7.75;;
22614;SDS011;11474;50.790;0.298;2023-05-07T12:33:56;12.07;;;7.40;;
22614;SDS011;11474;50.790;0.298;2023-05-07T12:36:22;11.32;;;7.53;;
22614;SDS011;11474;50.790;0.298;2023-05-07T12:38:49;9.07;;;6.32;;
22614;SDS011;11474;50.790;0.298;2023-05-07T12:41:15;11.05;;;6.40;;
22614;SDS011;11474;50.790;0.298;2023-05-07T12:43:44;11.43;;;7.22;;
22614;SDS011;11474;50.790;0.298;2023-05-07T12:46:11;11.50;;;7.73;;
22614;SDS011;11474;50.790;0.298;2023-05-07T12:48:45;10.80;;;7.75;;
22614;SDS011;11474;50.790;0.298;2023-05-07T12:51:11;13.33;;;9.00;;
22614;SDS011;11474;50.790;0.298;2023-05-07T12:53:41;12.77;;;9.15;;
22614;SDS011;11474;50.790;0.298;2023-05-07T12:56:07;11.48;;;7.68;;
22614;SDS011;11474;50.790;0.298;2023-05-07T12:58:34;11.57;;;7.75;;
22614;SDS011;11474;50.790;0.298;2023-05-07T13:01:04;11.18;;;8.00;;
22614;SDS011;11474;50.790;0.298;2023-05-07T13:03:31;10.67;;;8.00;;
22614;SDS011;11474;50.790;0.298;2023-05-07T13:05:59;11.00;;;7.47;;
22614;SDS011;11474;50.790;0.298;2023-05-07T13:08:32;11.48;;;8.18;;
22614;SDS011;11474;50.790;0.298;2023-05-07T13:10:58;10.55;;;7.45;;
22614;SDS011;11474;50.790;0.298;2023-05-07T13:13:28;11.18;;;6.82;;
22614;SDS011;11474;50.790;0.298;2023-05-07T13:15:54;9.87;;;6.70;;
22614;SDS011;11474;50.790;0.298;2023-05-07T13:18:20;12.10;;;8.63;;
22614;SDS011;11474;50.790;0.298;2023-05-07T13:20:46;12.55;;;8.65;;
22614;SDS011;11474;50.790;0.298;2023-05-07T13:23:12;11.82;;;8.15;;
22614;SDS011;11474;50.790;0.298;2023-05-07T13:25:38;12.23;;;8.05;;
22614;SDS011;11474;50.790;0.298;2023-05-07T13:28:04;11.55;;;8.68;;
22614;SDS011;11474;50.790;0.298;2023-05-07T13:30:31;13.23;;;7.87;;
22614;SDS011;11474;50.790;0.298;2023-05-07T13:32:57;12.90;;;8.10;;
22614;SDS011;11474;50.790;0.298;2023-05-07T13:35:23;11.98;;;8.73;;
22614;SDS011;11474;50.790;0.298;2023-05-07T13:37:49;11.85;;;8.95;;
22614;SDS011;11474;50.790;0.298;2023-05-07T13:40:17;11.68;;;9.13;;
22614;SDS011;11474;50.790;0.298;2023-05-07T13:42:44;11.70;;;8.27;;
22614;SDS011;11474;50.790;0.298;2023-05-07T13:45:10;12.35;;;9.00;;
22614;SDS011;11474;50.790;0.298;2023-05-07T13:47:39;14.68;;;9.30;;
22614;SDS011;11474;50.790;0.298;2023-05-07T13:50:05;17.45;;;8.93;;
22614;SDS011;11474;50.790;0.298;2023-05-07T13:52:32;16.00;;;9.18;;
22614;SDS011;11474;50.790;0.298;2023-05-07T13:54:58;17.88;;;9.25;;
22614;SDS011;11474;50.790;0.298;2023-05-07T13:57:24;16.52;;;9.93;;
22614;SDS011;11474;50.790;0.298;2023-05-07T13:59:50;20.40;;;10.63;;
22614;SDS011;11474;50.790;0.298;2023-05-07T14:02:16;20.23;;;10.93;;
22614;SDS011;11474;50.790;0.298;2023-05-07T14:04:42;18.85;;;10.23;;
22614;SDS011;11474;50.790;0.298;2023-05-07T14:07:08;21.17;;;10.75;;
22614;SDS011;11474;50.790;0.298;2023-05-07T14:09:34;19.73;;;10.45;;
22614;SDS011;11474;50.790;0.298;2023-05-07T14:12:00;24.50;;;11.15;;
22614;SDS011;11474;50.790;0.298;2023-05-07T14:14:26;20.30;;;10.40;;
22614;SDS011;11474;50.790;0.298;2023-05-07T14:16:52;21.40;;;10.73;;
22614;SDS011;11474;50.790;0.298;2023-05-07T14:19:18;20.63;;;10.82;;
22614;SDS011;11474;50.790;0.298;2023-05-07T14:21:44;21.55;;;10.77;;
22614;SDS011;11474;50.790;0.298;2023-05-07T14:24:10;20.70;;;11.20;;
22614;SDS011;11474;50.790;0.298;2023-05-07T14:26:36;27.75;;;12.63;;
22614;SDS011;11474;50.790;0.298;2023-05-07T14:29:03;24.40;;;12.40;;
22614;SDS011;11474;50.790;0.298;2023-05-07T14:31:29;21.65;;;12.27;;
22614;SDS011;11474;50.790;0.298;2023-05-07T14:33:55;22.58;;;11.60;;